sensor_id;sensor_type;location;lat;lon;timestamp;P1;durP1;ratioP1;P2;durP2;ratioP2
63342;SDS011;49465;57.664;39.686;2024-03-08T00:01:00;3.83;;;1.80;;
63342;SDS011;49465;57.664;39.686;2024-03-08T00:03:37;3.13;;;2.25;;
63342;SDS011;49465;57.664;39.686;2024-03-08T00:06:16;2.65;;;2.03;;
63342;SDS011;49465;57.664;39.686;2024-03-08T00:08:54;2.28;;;1.92;;
63342;SDS011;49465;57.664;39.686;2024-03-08T00:11:24;2.88;;;1.85;;
63342;SDS011;49465;57.664;39.686;2024-03-08T00:13:58;0.47;;;0.43;;
63342;SDS011;49465;57.664;39.686;2024-03-08T00:16:41;3.10;;;2.42;;
63342;SDS011;49465;57.664;39.686;2024-03-08T00:19:14;3.78;;;2.53;;
63342;SDS011;49465;57.664;39.686;2024-03-08T00:21:55;2.85;;;2.55;;
63342;SDS011;49465;57.664;39.686;2024-03-08T00:24:29;3.03;;;2.35;;
63342;SDS011;49465;57.664;39.686;2024-03-08T00:27:10;2.97;;;2.35;;
63342;SDS011;49465;57.664;39.686;2024-03-08T00:29:45;3.75;;;2.40;;
63342;SDS011;49465;57.664;39.686;2024-03-08T00:32:24;2.53;;;1.90;;
63342;SDS011;49465;57.664;39.686;2024-03-08T00:34:59;2.45;;;1.98;;
63342;SDS011;49465;57.664;39.686;2024-03-08T00:37:33;3.00;;;2.45;;
63342;SDS011;49465;57.664;39.686;2024-03-08T00:40:09;2.85;;;2.05;;
63342;SDS011;49465;57.664;39.686;2024-03-08T00:42:36;3.70;;;2.13;;
63342;SDS011;49465;57.664;39.686;2024-03-08T00:45:09;3.17;;;2.10;;
63342;SDS011;49465;57.664;39.686;2024-03-08T00:47:50;2.55;;;2.20;;
63342;SDS011;49465;57.664;39.686;2024-03-08T00:50:24;2.78;;;2.13;;
63342;SDS011;49465;57.664;39.686;2024-03-08T00:53:01;3.85;;;2.25;;
63342;SDS011;49465;57.664;39.686;2024-03-08T00:55:38;3.97;;;2.42;;
63342;SDS011;49465;57.664;39.686;2024-03-08T01:00:48;2.83;;;2.33;;
63342;SDS011;49465;57.664;39.686;2024-03-08T01:03:25;3.53;;;2.35;;
63342;SDS011;49465;57.664;39.686;2024-03-08T01:05:57;3.65;;;2.30;;
63342;SDS011;49465;57.664;39.686;2024-03-08T01:08:32;3.20;;;2.10;;
63342;SDS011;49465;57.664;39.686;2024-03-08T01:11:10;3.20;;;2.50;;
63342;SDS011;49465;57.664;39.686;2024-03-08T01:13:46;3.05;;;2.33;;
63342;SDS011;49465;57.664;39.686;2024-03-08T01:18:57;3.67;;;2.38;;
63342;SDS011;49465;57.664;39.686;2024-03-08T01:21:32;3.22;;;2.30;;
63342;SDS011;49465;57.664;39.686;2024-03-08T01:24:04;2.67;;;2.10;;
63342;SDS011;49465;57.664;39.686;2024-03-08T01:26:36;3.33;;;2.28;;
63342;SDS011;49465;57.664;39.686;2024-03-08T01:29:15;2.88;;;2.20;;
63342;SDS011;49465;57.664;39.686;2024-03-08T01:31:55;3.22;;;2.20;;
63342;SDS011;49465;57.664;39.686;2024-03-08T01:34:22;2.97;;;2.17;;
63342;SDS011;49465;57.664;39.686;2024-03-08T01:36:54;2.63;;;2.03;;
63342;SDS011;49465;57.664;39.686;2024-03-08T01:39:27;3.45;;;2.30;;
63342;SDS011;49465;57.664;39.686;2024-03-08T01:41:53;3.47;;;2.15;;
63342;SDS011;49465;57.664;39.686;2024-03-08T01:44:28;2.85;;;2.30;;
63342;SDS011;49465;57.664;39.686;2024-03-08T01:47:05;3.50;;;2.20;;
63342;SDS011;49465;57.664;39.686;2024-03-08T01:49:45;10.50;;;2.30;;
63342;SDS011;49465;57.664;39.686;2024-03-08T01:52:15;2.92;;;2.10;;
63342;SDS011;49465;57.664;39.686;2024-03-08T01:54:47;2.83;;;2.28;;
63342;SDS011;49465;57.664;39.686;2024-03-08T01:57:28;3.38;;;2.20;;
63342;SDS011;49465;57.664;39.686;2024-03-08T02:00:01;1.35;;;0.98;;
63342;SDS011;49465;57.664;39.686;2024-03-08T02:02:34;3.08;;;2.10;;
63342;SDS011;49465;57.664;39.686;2024-03-08T02:05:08;2.92;;;2.00;;
63342;SDS011;49465;57.664;39.686;2024-03-08T02:07:51;2.10;;;0.70;;
63342;SDS011;49465;57.664;39.686;2024-03-08T02:10:22;2.60;;;2.10;;
63342;SDS011;49465;57.664;39.686;2024-03-08T02:12:55;4.00;;;2.28;;
63342;SDS011;49465;57.664;39.686;2024-03-08T02:15:47;3.65;;;2.53;;
63342;SDS011;49465;57.664;39.686;2024-03-08T02:18:21;3.30;;;2.30;;
63342;SDS011;49465;57.664;39.686;2024-03-08T02:20:54;3.33;;;2.28;;
63342;SDS011;49465;57.664;39.686;2024-03-08T02:23:29;3.22;;;2.50;;
63342;SDS011;49465;57.664;39.686;2024-03-08T02:26:00;2.88;;;2.28;;
63342;SDS011;49465;57.664;39.686;2024-03-08T02:31:03;2.95;;;2.25;;
63342;SDS011;49465;57.664;39.686;2024-03-08T02:33:36;3.47;;;2.40;;
63342;SDS011;49465;57.664;39.686;2024-03-08T02:36:07;3.08;;;2.35;;
63342;SDS011;49465;57.664;39.686;2024-03-08T02:41:15;2.72;;;2.20;;
63342;SDS011;49465;57.664;39.686;2024-03-08T02:43:44;3.35;;;2.30;;
63342;SDS011;49465;57.664;39.686;2024-03-08T02:46:18;3.45;;;2.40;;
63342;SDS011;49465;57.664;39.686;2024-03-08T02:48:58;3.55;;;2.20;;
63342;SDS011;49465;57.664;39.686;2024-03-08T02:54:04;3.05;;;2.20;;
63342;SDS011;49465;57.664;39.686;2024-03-08T02:56:44;2.70;;;2.17;;
63342;SDS011;49465;57.664;39.686;2024-03-08T02:59:19;2.10;;;1.90;;
63342;SDS011;49465;57.664;39.686;2024-03-08T03:02:01;1.35;;;0.55;;
63342;SDS011;49465;57.664;39.686;2024-03-08T03:04:34;0.20;;;0.20;;
63342;SDS011;49465;57.664;39.686;2024-03-08T03:07:11;2.75;;;2.13;;
63342;SDS011;49465;57.664;39.686;2024-03-08T03:09:44;2.72;;;2.20;;
63342;SDS011;49465;57.664;39.686;2024-03-08T03:12:21;2.95;;;2.20;;
63342;SDS011;49465;57.664;39.686;2024-03-08T03:14:55;2.25;;;2.00;;
63342;SDS011;49465;57.664;39.686;2024-03-08T03:17:38;2.92;;;2.20;;
63342;SDS011;49465;57.664;39.686;2024-03-08T03:20:10;3.20;;;2.50;;
63342;SDS011;49465;57.664;39.686;2024-03-08T03:22:54;0.90;;;0.80;;
63342;SDS011;49465;57.664;39.686;2024-03-08T03:25:26;0.77;;;0.77;;
63342;SDS011;49465;57.664;39.686;2024-03-08T03:28:01;0.63;;;0.45;;
63342;SDS011;49465;57.664;39.686;2024-03-08T03:30:33;1.90;;;0.60;;
63342;SDS011;49465;57.664;39.686;2024-03-08T03:33:02;3.53;;;2.67;;
63342;SDS011;49465;57.664;39.686;2024-03-08T03:35:45;3.42;;;2.33;;
63342;SDS011;49465;57.664;39.686;2024-03-08T03:38:20;2.90;;;2.40;;
63342;SDS011;49465;57.664;39.686;2024-03-08T03:40:55;3.30;;;2.40;;
63342;SDS011;49465;57.664;39.686;2024-03-08T03:43:38;3.20;;;2.47;;
63342;SDS011;49465;57.664;39.686;2024-03-08T03:46:11;3.35;;;2.50;;
63342;SDS011;49465;57.664;39.686;2024-03-08T03:48:40;3.47;;;2.28;;
63342;SDS011;49465;57.664;39.686;2024-03-08T03:51:10;3.15;;;2.47;;
63342;SDS011;49465;57.664;39.686;2024-03-08T03:53:39;3.40;;;2.20;;
63342;SDS011;49465;57.664;39.686;2024-03-08T03:56:11;3.60;;;2.55;;
63342;SDS011;49465;57.664;39.686;2024-03-08T03:58:46;3.30;;;2.30;;
63342;SDS011;49465;57.664;39.686;2024-03-08T04:01:26;4.20;;;2.70;;
63342;SDS011;49465;57.664;39.686;2024-03-08T04:04:01;4.03;;;2.78;;
63342;SDS011;49465;57.664;39.686;2024-03-08T04:06:30;3.20;;;2.20;;
63342;SDS011;49465;57.664;39.686;2024-03-08T04:11:40;3.15;;;2.53;;
63342;SDS011;49465;57.664;39.686;2024-03-08T04:14:13;3.58;;;2.65;;
63342;SDS011;49465;57.664;39.686;2024-03-08T04:16:44;4.43;;;2.70;;
63342;SDS011;49465;57.664;39.686;2024-03-08T04:19:18;4.07;;;2.85;;
63342;SDS011;49465;57.664;39.686;2024-03-08T04:21:50;5.32;;;3.20;;
63342;SDS011;49465;57.664;39.686;2024-03-08T04:24:21;5.47;;;2.90;;
63342;SDS011;49465;57.664;39.686;2024-03-08T04:26:48;4.32;;;2.90;;
63342;SDS011;49465;57.664;39.686;2024-03-08T04:29:29;4.70;;;3.30;;
63342;SDS011;49465;57.664;39.686;2024-03-08T04:32:04;5.53;;;3.30;;
63342;SDS011;49465;57.664;39.686;2024-03-08T04:34:39;5.55;;;3.30;;
63342;SDS011;49465;57.664;39.686;2024-03-08T04:37:18;5.30;;;3.30;;
63342;SDS011;49465;57.664;39.686;2024-03-08T04:39:55;5.25;;;3.30;;
63342;SDS011;49465;57.664;39.686;2024-03-08T04:42:30;5.93;;;3.38;;
63342;SDS011;49465;57.664;39.686;2024-03-08T04:45:03;2.85;;;1.30;;
63342;SDS011;49465;57.664;39.686;2024-03-08T04:47:42;4.70;;;3.20;;
63342;SDS011;49465;57.664;39.686;2024-03-08T04:50:22;4.78;;;3.42;;
63342;SDS011;49465;57.664;39.686;2024-03-08T04:52:56;3.95;;;3.03;;
63342;SDS011;49465;57.664;39.686;2024-03-08T04:55:25;5.50;;;3.33;;
63342;SDS011;49465;57.664;39.686;2024-03-08T04:57:59;5.32;;;3.70;;
63342;SDS011;49465;57.664;39.686;2024-03-08T05:00:36;5.53;;;3.85;;
63342;SDS011;49465;57.664;39.686;2024-03-08T05:03:06;6.53;;;4.05;;
63342;SDS011;49465;57.664;39.686;2024-03-08T05:05:37;7.05;;;3.65;;
63342;SDS011;49465;57.664;39.686;2024-03-08T05:08:11;6.35;;;3.85;;
63342;SDS011;49465;57.664;39.686;2024-03-08T05:10:43;6.30;;;4.30;;
63342;SDS011;49465;57.664;39.686;2024-03-08T05:13:17;7.72;;;4.30;;
63342;SDS011;49465;57.664;39.686;2024-03-08T05:15:52;6.53;;;4.30;;
63342;SDS011;49465;57.664;39.686;2024-03-08T05:18:24;6.50;;;4.30;;
63342;SDS011;49465;57.664;39.686;2024-03-08T05:20:56;6.93;;;4.93;;
63342;SDS011;49465;57.664;39.686;2024-03-08T05:23:28;6.25;;;4.28;;
63342;SDS011;49465;57.664;39.686;2024-03-08T05:26:08;6.72;;;4.53;;
63342;SDS011;49465;57.664;39.686;2024-03-08T05:28:43;5.32;;;4.20;;
63342;SDS011;49465;57.664;39.686;2024-03-08T05:31:25;7.13;;;4.30;;
63342;SDS011;49465;57.664;39.686;2024-03-08T05:33:56;6.68;;;4.60;;
63342;SDS011;49465;57.664;39.686;2024-03-08T05:36:22;8.38;;;5.03;;
63342;SDS011;49465;57.664;39.686;2024-03-08T05:38:49;8.35;;;4.80;;
63342;SDS011;49465;57.664;39.686;2024-03-08T05:41:23;8.85;;;5.30;;
63342;SDS011;49465;57.664;39.686;2024-03-08T05:43:53;7.93;;;4.85;;
63342;SDS011;49465;57.664;39.686;2024-03-08T05:46:28;8.35;;;5.15;;
63342;SDS011;49465;57.664;39.686;2024-03-08T05:48:57;9.13;;;4.90;;
63342;SDS011;49465;57.664;39.686;2024-03-08T05:51:33;7.75;;;4.60;;
63342;SDS011;49465;57.664;39.686;2024-03-08T05:54:04;7.50;;;4.57;;
63342;SDS011;49465;57.664;39.686;2024-03-08T05:56:38;7.85;;;4.53;;
63342;SDS011;49465;57.664;39.686;2024-03-08T05:59:22;6.40;;;4.35;;
63342;SDS011;49465;57.664;39.686;2024-03-08T06:01:52;7.25;;;4.47;;
63342;SDS011;49465;57.664;39.686;2024-03-08T06:04:21;6.53;;;4.22;;
63342;SDS011;49465;57.664;39.686;2024-03-08T06:06:59;6.82;;;4.07;;
63342;SDS011;49465;57.664;39.686;2024-03-08T06:09:37;6.07;;;4.03;;
63342;SDS011;49465;57.664;39.686;2024-03-08T06:12:16;5.47;;;4.07;;
63342;SDS011;49465;57.664;39.686;2024-03-08T06:14:48;5.50;;;4.00;;
63342;SDS011;49465;57.664;39.686;2024-03-08T06:17:22;7.70;;;4.30;;
63342;SDS011;49465;57.664;39.686;2024-03-08T06:19:51;6.82;;;4.10;;
63342;SDS011;49465;57.664;39.686;2024-03-08T06:22:23;5.07;;;3.38;;
63342;SDS011;49465;57.664;39.686;2024-03-08T06:25:00;4.85;;;3.50;;
63342;SDS011;49465;57.664;39.686;2024-03-08T06:27:57;5.38;;;3.58;;
63342;SDS011;49465;57.664;39.686;2024-03-08T06:30:26;5.80;;;3.40;;
63342;SDS011;49465;57.664;39.686;2024-03-08T06:32:57;4.82;;;3.00;;
63342;SDS011;49465;57.664;39.686;2024-03-08T06:35:26;4.70;;;3.67;;
63342;SDS011;49465;57.664;39.686;2024-03-08T06:38:01;4.00;;;3.00;;
63342;SDS011;49465;57.664;39.686;2024-03-08T06:40:36;5.00;;;2.90;;
63342;SDS011;49465;57.664;39.686;2024-03-08T06:43:13;4.63;;;3.38;;
63342;SDS011;49465;57.664;39.686;2024-03-08T06:45:44;5.00;;;3.35;;
63342;SDS011;49465;57.664;39.686;2024-03-08T06:48:17;5.95;;;3.40;;
63342;SDS011;49465;57.664;39.686;2024-03-08T06:50:53;4.90;;;3.45;;
63342;SDS011;49465;57.664;39.686;2024-03-08T06:53:30;5.28;;;3.25;;
63342;SDS011;49465;57.664;39.686;2024-03-08T06:56:03;4.63;;;3.50;;
63342;SDS011;49465;57.664;39.686;2024-03-08T06:58:41;4.47;;;2.92;;
63342;SDS011;49465;57.664;39.686;2024-03-08T07:01:20;4.82;;;3.15;;
63342;SDS011;49465;57.664;39.686;2024-03-08T07:03:50;4.35;;;3.05;;
63342;SDS011;49465;57.664;39.686;2024-03-08T07:06:24;4.03;;;2.90;;
63342;SDS011;49465;57.664;39.686;2024-03-08T07:08:59;4.18;;;2.90;;
63342;SDS011;49465;57.664;39.686;2024-03-08T07:11:36;4.10;;;3.00;;
63342;SDS011;49465;57.664;39.686;2024-03-08T07:14:25;4.30;;;2.90;;
63342;SDS011;49465;57.664;39.686;2024-03-08T07:17:08;5.45;;;3.40;;
63342;SDS011;49465;57.664;39.686;2024-03-08T07:19:46;5.00;;;3.10;;
63342;SDS011;49465;57.664;39.686;2024-03-08T07:22:18;5.43;;;3.75;;
63342;SDS011;49465;57.664;39.686;2024-03-08T07:24:53;5.00;;;3.53;;
63342;SDS011;49465;57.664;39.686;2024-03-08T07:27:40;5.13;;;3.67;;
63342;SDS011;49465;57.664;39.686;2024-03-08T07:30:12;8.45;;;4.10;;
63342;SDS011;49465;57.664;39.686;2024-03-08T07:32:59;6.07;;;4.25;;
63342;SDS011;49465;57.664;39.686;2024-03-08T07:35:35;5.65;;;3.80;;
63342;SDS011;49465;57.664;39.686;2024-03-08T07:38:08;6.22;;;4.35;;
63342;SDS011;49465;57.664;39.686;2024-03-08T07:40:41;7.75;;;4.63;;
63342;SDS011;49465;57.664;39.686;2024-03-08T07:43:14;5.78;;;4.47;;
63342;SDS011;49465;57.664;39.686;2024-03-08T07:45:48;7.82;;;4.68;;
63342;SDS011;49465;57.664;39.686;2024-03-08T07:48:26;7.57;;;5.20;;
63342;SDS011;49465;57.664;39.686;2024-03-08T07:50:53;8.40;;;5.10;;
63342;SDS011;49465;57.664;39.686;2024-03-08T07:53:24;7.65;;;5.30;;
63342;SDS011;49465;57.664;39.686;2024-03-08T07:55:56;8.82;;;4.82;;
63342;SDS011;49465;57.664;39.686;2024-03-08T07:58:28;9.27;;;5.63;;
63342;SDS011;49465;57.664;39.686;2024-03-08T08:00:55;8.30;;;5.30;;
63342;SDS011;49465;57.664;39.686;2024-03-08T08:03:29;8.05;;;4.97;;
63342;SDS011;49465;57.664;39.686;2024-03-08T08:06:07;8.00;;;4.85;;
63342;SDS011;49465;57.664;39.686;2024-03-08T08:08:46;8.27;;;5.03;;
63342;SDS011;49465;57.664;39.686;2024-03-08T08:11:21;9.05;;;5.40;;
63342;SDS011;49465;57.664;39.686;2024-03-08T08:13:59;7.53;;;4.90;;
63342;SDS011;49465;57.664;39.686;2024-03-08T08:16:32;7.15;;;5.13;;
63342;SDS011;49465;57.664;39.686;2024-03-08T08:19:16;7.75;;;5.05;;
63342;SDS011;49465;57.664;39.686;2024-03-08T08:21:53;8.60;;;4.70;;
63342;SDS011;49465;57.664;39.686;2024-03-08T08:24:24;6.82;;;4.82;;
63342;SDS011;49465;57.664;39.686;2024-03-08T08:26:54;8.73;;;5.10;;
63342;SDS011;49465;57.664;39.686;2024-03-08T08:29:25;7.85;;;4.93;;
63342;SDS011;49465;57.664;39.686;2024-03-08T08:32:03;8.10;;;5.35;;
63342;SDS011;49465;57.664;39.686;2024-03-08T08:34:35;6.80;;;4.22;;
63342;SDS011;49465;57.664;39.686;2024-03-08T08:37:13;8.90;;;4.28;;
63342;SDS011;49465;57.664;39.686;2024-03-08T08:39:43;5.70;;;4.00;;
63342;SDS011;49465;57.664;39.686;2024-03-08T08:42:20;6.95;;;4.70;;
63342;SDS011;49465;57.664;39.686;2024-03-08T08:44:53;7.00;;;4.72;;
63342;SDS011;49465;57.664;39.686;2024-03-08T08:47:28;6.43;;;4.32;;
63342;SDS011;49465;57.664;39.686;2024-03-08T08:49:55;5.65;;;4.05;;
63342;SDS011;49465;57.664;39.686;2024-03-08T08:52:32;5.78;;;4.10;;
63342;SDS011;49465;57.664;39.686;2024-03-08T08:55:11;4.63;;;3.72;;
63342;SDS011;49465;57.664;39.686;2024-03-08T08:57:49;6.88;;;4.40;;
63342;SDS011;49465;57.664;39.686;2024-03-08T09:00:21;4.32;;;3.60;;
63342;SDS011;49465;57.664;39.686;2024-03-08T09:02:56;6.90;;;3.72;;
63342;SDS011;49465;57.664;39.686;2024-03-08T09:05:30;4.63;;;3.30;;
63342;SDS011;49465;57.664;39.686;2024-03-08T09:08:08;4.63;;;3.28;;
63342;SDS011;49465;57.664;39.686;2024-03-08T09:10:38;4.32;;;3.38;;
63342;SDS011;49465;57.664;39.686;2024-03-08T09:13:12;3.38;;;2.90;;
63342;SDS011;49465;57.664;39.686;2024-03-08T09:15:45;3.63;;;2.50;;
63342;SDS011;49465;57.664;39.686;2024-03-08T09:18:17;4.60;;;3.08;;
63342;SDS011;49465;57.664;39.686;2024-03-08T09:20:52;3.97;;;2.53;;
63342;SDS011;49465;57.664;39.686;2024-03-08T09:23:33;3.03;;;2.25;;
63342;SDS011;49465;57.664;39.686;2024-03-08T09:26:07;2.95;;;1.83;;
63342;SDS011;49465;57.664;39.686;2024-03-08T09:28:40;2.53;;;1.73;;
63342;SDS011;49465;57.664;39.686;2024-03-08T09:31:23;2.00;;;1.80;;
63342;SDS011;49465;57.664;39.686;2024-03-08T09:33:54;2.85;;;1.90;;
63342;SDS011;49465;57.664;39.686;2024-03-08T09:36:47;2.50;;;1.80;;
63342;SDS011;49465;57.664;39.686;2024-03-08T09:39:19;2.17;;;1.75;;
63342;SDS011;49465;57.664;39.686;2024-03-08T09:41:56;2.55;;;1.73;;
63342;SDS011;49465;57.664;39.686;2024-03-08T09:44:33;2.13;;;1.70;;
63342;SDS011;49465;57.664;39.686;2024-03-08T09:49:47;2.75;;;1.80;;
63342;SDS011;49465;57.664;39.686;2024-03-08T09:52:22;2.38;;;1.77;;
63342;SDS011;49465;57.664;39.686;2024-03-08T09:55:05;3.20;;;1.98;;
63342;SDS011;49465;57.664;39.686;2024-03-08T09:57:39;2.20;;;1.52;;
63342;SDS011;49465;57.664;39.686;2024-03-08T10:00:33;3.58;;;2.05;;
63342;SDS011;49465;57.664;39.686;2024-03-08T10:03:25;2.08;;;1.80;;
63342;SDS011;49465;57.664;39.686;2024-03-08T10:06:12;3.92;;;2.00;;
63342;SDS011;49465;57.664;39.686;2024-03-08T10:08:46;3.42;;;1.70;;
63342;SDS011;49465;57.664;39.686;2024-03-08T10:11:22;2.53;;;1.50;;
63342;SDS011;49465;57.664;39.686;2024-03-08T10:13:58;3.17;;;1.80;;
63342;SDS011;49465;57.664;39.686;2024-03-08T10:16:38;2.88;;;1.75;;
63342;SDS011;49465;57.664;39.686;2024-03-08T10:19:09;2.95;;;1.98;;
63342;SDS011;49465;57.664;39.686;2024-03-08T10:21:54;1.75;;;1.45;;
63342;SDS011;49465;57.664;39.686;2024-03-08T10:24:26;1.83;;;1.50;;
63342;SDS011;49465;57.664;39.686;2024-03-08T10:27:04;2.28;;;1.63;;
63342;SDS011;49465;57.664;39.686;2024-03-08T10:29:38;1.45;;;1.35;;
63342;SDS011;49465;57.664;39.686;2024-03-08T10:32:22;2.13;;;1.50;;
63342;SDS011;49465;57.664;39.686;2024-03-08T10:34:51;3.08;;;1.80;;
63342;SDS011;49465;57.664;39.686;2024-03-08T10:40:16;2.78;;;1.30;;
63342;SDS011;49465;57.664;39.686;2024-03-08T10:43:06;1.43;;;1.17;;
63342;SDS011;49465;57.664;39.686;2024-03-08T10:45:44;2.13;;;1.20;;
63342;SDS011;49465;57.664;39.686;2024-03-08T10:48:32;3.38;;;1.83;;
63342;SDS011;49465;57.664;39.686;2024-03-08T10:51:09;2.35;;;1.75;;
63342;SDS011;49465;57.664;39.686;2024-03-08T10:53:48;2.67;;;1.30;;
63342;SDS011;49465;57.664;39.686;2024-03-08T10:56:21;2.17;;;1.38;;
63342;SDS011;49465;57.664;39.686;2024-03-08T10:58:56;1.92;;;1.38;;
63342;SDS011;49465;57.664;39.686;2024-03-08T11:01:29;1.70;;;1.20;;
63342;SDS011;49465;57.664;39.686;2024-03-08T11:04:04;2.22;;;1.20;;
63342;SDS011;49465;57.664;39.686;2024-03-08T11:09:31;1.63;;;1.20;;
63342;SDS011;49465;57.664;39.686;2024-03-08T11:12:21;1.48;;;1.20;;
63342;SDS011;49465;57.664;39.686;2024-03-08T11:14:53;1.33;;;1.10;;
63342;SDS011;49465;57.664;39.686;2024-03-08T11:17:52;2.45;;;1.50;;
63342;SDS011;49465;57.664;39.686;2024-03-08T11:20:26;2.55;;;1.33;;
63342;SDS011;49465;57.664;39.686;2024-03-08T11:23:03;1.88;;;1.50;;
63342;SDS011;49465;57.664;39.686;2024-03-08T11:25:42;2.10;;;1.70;;
63342;SDS011;49465;57.664;39.686;2024-03-08T11:33:43;3.08;;;1.70;;
63342;SDS011;49465;57.664;39.686;2024-03-08T11:36:24;2.67;;;1.65;;
63342;SDS011;49465;57.664;39.686;2024-03-08T11:39:07;2.85;;;1.95;;
63342;SDS011;49465;57.664;39.686;2024-03-08T11:41:42;3.20;;;2.38;;
63342;SDS011;49465;57.664;39.686;2024-03-08T11:44:15;2.30;;;1.63;;
63342;SDS011;49465;57.664;39.686;2024-03-08T11:46:50;2.88;;;1.73;;
63342;SDS011;49465;57.664;39.686;2024-03-08T11:49:31;4.28;;;2.00;;
63342;SDS011;49465;57.664;39.686;2024-03-08T11:52:14;3.33;;;1.80;;
63342;SDS011;49465;57.664;39.686;2024-03-08T11:54:55;3.40;;;2.05;;
63342;SDS011;49465;57.664;39.686;2024-03-08T11:57:29;4.95;;;2.58;;
63342;SDS011;49465;57.664;39.686;2024-03-08T12:00:02;3.17;;;2.08;;
63342;SDS011;49465;57.664;39.686;2024-03-08T12:03:05;3.65;;;2.50;;
63342;SDS011;49465;57.664;39.686;2024-03-08T12:05:46;4.07;;;2.58;;
63342;SDS011;49465;57.664;39.686;2024-03-08T12:08:24;4.95;;;2.83;;
63342;SDS011;49465;57.664;39.686;2024-03-08T12:11:06;4.95;;;2.65;;
63342;SDS011;49465;57.664;39.686;2024-03-08T12:13:41;5.05;;;3.03;;
63342;SDS011;49465;57.664;39.686;2024-03-08T12:16:11;5.00;;;2.80;;
63342;SDS011;49465;57.664;39.686;2024-03-08T12:18:44;3.65;;;2.40;;
63342;SDS011;49465;57.664;39.686;2024-03-08T12:21:14;3.95;;;2.50;;
63342;SDS011;49465;57.664;39.686;2024-03-08T12:24:08;4.20;;;3.30;;
63342;SDS011;49465;57.664;39.686;2024-03-08T12:26:41;3.80;;;2.70;;
63342;SDS011;49465;57.664;39.686;2024-03-08T12:32:07;3.67;;;2.70;;
63342;SDS011;49465;57.664;39.686;2024-03-08T12:35:14;4.70;;;3.25;;
63342;SDS011;49465;57.664;39.686;2024-03-08T12:37:55;3.35;;;2.40;;
63342;SDS011;49465;57.664;39.686;2024-03-08T12:40:42;3.92;;;2.80;;
63342;SDS011;49465;57.664;39.686;2024-03-08T12:43:29;3.88;;;2.92;;
63342;SDS011;49465;57.664;39.686;2024-03-08T12:46:02;4.38;;;2.80;;
63342;SDS011;49465;57.664;39.686;2024-03-08T12:48:37;2.50;;;1.90;;
63342;SDS011;49465;57.664;39.686;2024-03-08T12:51:15;2.70;;;1.40;;
63342;SDS011;49465;57.664;39.686;2024-03-08T12:53:59;2.28;;;1.30;;
63342;SDS011;49465;57.664;39.686;2024-03-08T12:56:40;1.10;;;1.00;;
63342;SDS011;49465;57.664;39.686;2024-03-08T12:59:28;0.70;;;0.70;;
63342;SDS011;49465;57.664;39.686;2024-03-08T13:01:59;0.68;;;0.60;;
63342;SDS011;49465;57.664;39.686;2024-03-08T13:04:36;0.82;;;0.50;;
63342;SDS011;49465;57.664;39.686;2024-03-08T13:07:24;1.02;;;0.60;;
63342;SDS011;49465;57.664;39.686;2024-03-08T13:10:00;0.88;;;0.70;;
63342;SDS011;49465;57.664;39.686;2024-03-08T13:12:33;0.70;;;0.60;;
63342;SDS011;49465;57.664;39.686;2024-03-08T13:15:07;1.52;;;0.80;;
63342;SDS011;49465;57.664;39.686;2024-03-08T13:17:48;0.90;;;0.70;;
63342;SDS011;49465;57.664;39.686;2024-03-08T13:20:23;1.08;;;0.80;;
63342;SDS011;49465;57.664;39.686;2024-03-08T13:23:06;2.15;;;0.82;;
63342;SDS011;49465;57.664;39.686;2024-03-08T13:25:47;0.80;;;0.70;;
63342;SDS011;49465;57.664;39.686;2024-03-08T13:28:22;1.40;;;0.60;;
63342;SDS011;49465;57.664;39.686;2024-03-08T13:30:56;0.80;;;0.63;;
63342;SDS011;49465;57.664;39.686;2024-03-08T13:33:29;1.40;;;0.85;;
63342;SDS011;49465;57.664;39.686;2024-03-08T13:36:13;0.68;;;0.60;;
63342;SDS011;49465;57.664;39.686;2024-03-08T13:38:59;1.52;;;0.70;;
63342;SDS011;49465;57.664;39.686;2024-03-08T13:41:48;0.57;;;0.50;;
63342;SDS011;49465;57.664;39.686;2024-03-08T13:44:34;0.60;;;0.50;;
63342;SDS011;49465;57.664;39.686;2024-03-08T13:47:26;0.52;;;0.40;;
63342;SDS011;49465;57.664;39.686;2024-03-08T13:50:03;0.52;;;0.40;;
63342;SDS011;49465;57.664;39.686;2024-03-08T13:52:38;0.30;;;0.30;;
63342;SDS011;49465;57.664;39.686;2024-03-08T13:55:15;0.45;;;0.40;;
63342;SDS011;49465;57.664;39.686;2024-03-08T13:57:53;0.30;;;0.30;;
63342;SDS011;49465;57.664;39.686;2024-03-08T14:00:25;0.30;;;0.30;;
63342;SDS011;49465;57.664;39.686;2024-03-08T14:03:05;0.35;;;0.25;;
63342;SDS011;49465;57.664;39.686;2024-03-08T14:05:43;0.32;;;0.30;;
63342;SDS011;49465;57.664;39.686;2024-03-08T14:08:12;0.65;;;0.30;;
63342;SDS011;49465;57.664;39.686;2024-03-08T14:10:45;0.50;;;0.32;;
63342;SDS011;49465;57.664;39.686;2024-03-08T14:13:40;0.50;;;0.40;;
63342;SDS011;49465;57.664;39.686;2024-03-08T14:16:19;0.30;;;0.30;;
63342;SDS011;49465;57.664;39.686;2024-03-08T14:18:56;0.32;;;0.30;;
63342;SDS011;49465;57.664;39.686;2024-03-08T14:21:33;0.22;;;0.20;;
63342;SDS011;49465;57.664;39.686;2024-03-08T14:24:07;0.20;;;0.20;;
63342;SDS011;49465;57.664;39.686;2024-03-08T14:26:43;0.70;;;0.30;;
63342;SDS011;49465;57.664;39.686;2024-03-08T14:29:19;1.45;;;0.30;;
63342;SDS011;49465;57.664;39.686;2024-03-08T14:31:48;0.45;;;0.30;;
63342;SDS011;49465;57.664;39.686;2024-03-08T14:34:30;0.30;;;0.30;;
63342;SDS011;49465;57.664;39.686;2024-03-08T14:37:09;61.83;;;33.70;;
63342;SDS011;49465;57.664;39.686;2024-03-08T14:39:46;36.08;;;24.00;;
63342;SDS011;49465;57.664;39.686;2024-03-08T14:42:22;90.20;;;59.78;;
63342;SDS011;49465;57.664;39.686;2024-03-08T14:44:57;62.78;;;43.60;;
63342;SDS011;49465;57.664;39.686;2024-03-08T14:47:40;71.25;;;61.97;;
63342;SDS011;49465;57.664;39.686;2024-03-08T14:50:34;48.88;;;43.63;;
63342;SDS011;49465;57.664;39.686;2024-03-08T14:55:55;173.27;;;126.53;;
63342;SDS011;49465;57.664;39.686;2024-03-08T14:58:31;217.23;;;165.68;;
63342;SDS011;49465;57.664;39.686;2024-03-08T15:01:09;246.15;;;197.57;;
63342;SDS011;49465;57.664;39.686;2024-03-08T15:03:39;193.82;;;169.15;;
63342;SDS011;49465;57.664;39.686;2024-03-08T15:06:16;49.83;;;43.40;;
63342;SDS011;49465;57.664;39.686;2024-03-08T15:09:04;43.10;;;33.50;;
63342;SDS011;49465;57.664;39.686;2024-03-08T15:11:37;78.53;;;64.90;;
63342;SDS011;49465;57.664;39.686;2024-03-08T15:14:10;41.40;;;35.15;;
63342;SDS011;49465;57.664;39.686;2024-03-08T15:16:40;25.02;;;22.42;;
63342;SDS011;49465;57.664;39.686;2024-03-08T15:19:16;13.32;;;11.13;;
63342;SDS011;49465;57.664;39.686;2024-03-08T15:21:56;5.70;;;5.07;;
63342;SDS011;49465;57.664;39.686;2024-03-08T15:24:35;3.00;;;2.63;;
63342;SDS011;49465;57.664;39.686;2024-03-08T15:27:07;2.33;;;1.80;;
63342;SDS011;49465;57.664;39.686;2024-03-08T15:29:33;2.10;;;1.60;;
63342;SDS011;49465;57.664;39.686;2024-03-08T15:32:04;1.73;;;1.10;;
63342;SDS011;49465;57.664;39.686;2024-03-08T15:34:34;2.00;;;1.40;;
63342;SDS011;49465;57.664;39.686;2024-03-08T15:37:18;1.60;;;1.10;;
63342;SDS011;49465;57.664;39.686;2024-03-08T15:40:04;6.03;;;3.08;;
63342;SDS011;49465;57.664;39.686;2024-03-08T15:45:20;6.38;;;3.35;;
63342;SDS011;49465;57.664;39.686;2024-03-08T15:47:53;2.00;;;1.52;;
63342;SDS011;49465;57.664;39.686;2024-03-08T15:50:33;2.95;;;1.70;;
63342;SDS011;49465;57.664;39.686;2024-03-08T15:53:04;2.13;;;1.70;;
63342;SDS011;49465;57.664;39.686;2024-03-08T15:55:37;2.95;;;2.65;;
63342;SDS011;49465;57.664;39.686;2024-03-08T15:58:17;5.03;;;3.63;;
63342;SDS011;49465;57.664;39.686;2024-03-08T16:01:01;22.00;;;13.82;;
63342;SDS011;49465;57.664;39.686;2024-03-08T16:03:42;10.48;;;7.22;;